Time;durP1;ratioP1;P1;durP2;ratioP2;P2;SDS_P1;SDS_P2;PMS_P1;PMS_P2;Temp;Humidity;BMP_temperature;BMP_pressure;BME280_temperature;BME280_humidity;BME280_pressure;Samples;Min_cycle;Max_cycle;Signal;HPM_P1;HPM_P2
2022/04/24 00:00:12;;;;;;;9.00;7.40;;;15.20;45.90;;;;;;5091303;28;20410;-87
2022/04/24 00:02:38;;;;;;;8.75;7.85;;;15.20;45.90;;;;;;5091407;28;20183;-87
2022/04/24 00:05:04;;;;;;;8.80;7.77;;;15.10;46.10;;;;;;5087954;28;20204;-87
2022/04/24 00:07:31;;;;;;;10.10;7.97;;;15.10;46.90;;;;;;5076835;28;20265;-87
2022/04/24 00:09:56;;;;;;;8.75;7.82;;;15.10;46.20;;;;;;5082013;28;20249;-86
2022/04/24 00:12:22;;;;;;;8.40;6.63;;;15.10;46.10;;;;;;5090471;28;20773;-87
2022/04/24 00:14:49;;;;;;;8.07;7.07;;;15.20;45.80;;;;;;5090859;28;20179;-87
2022/04/24 00:17:16;;;;;;;10.20;7.57;;;15.10;46.00;;;;;;5092662;28;20442;-87
2022/04/24 00:19:43;;;;;;;8.80;6.90;;;15.10;46.10;;;;;;5094916;28;20176;-87
2022/04/24 00:22:09;;;;;;;9.55;7.32;;;15.10;46.10;;;;;;5092105;28;20176;-87
2022/04/24 00:24:38;;;;;;;9.15;7.63;;;15.00;46.20;;;;;;5059088;28;20321;-86
2022/04/24 00:27:04;;;;;;;14.52;8.45;;;15.00;46.00;;;;;;5075163;28;20192;-87
2022/04/24 00:29:30;;;;;;;9.20;6.83;;;14.90;46.30;;;;;;5075858;28;20185;-87
2022/04/24 00:31:55;;;;;;;7.80;6.60;;;14.90;46.20;;;;;;5077622;28;20407;-86
2022/04/24 00:34:21;;;;;;;7.50;6.10;;;15.00;46.00;;;;;;5089427;28;20598;-87
2022/04/24 00:36:47;;;;;;;9.23;6.63;;;14.80;46.10;;;;;;5074977;28;20200;-87
2022/04/24 00:39:14;;;;;;;8.47;6.67;;;14.80;46.20;;;;;;5078793;28;20695;-87
2022/04/24 00:41:51;;;;;;;11.70;7.18;;;14.80;45.90;;;;;;5091008;28;20508;-86
2022/04/24 00:44:18;;;;;;;11.05;5.78;;;14.80;46.10;;;;;;5090178;28;20196;-85
2022/04/24 00:47:06;;;;;;;8.05;6.40;;;14.70;46.30;;;;;;5093700;28;20328;-85
2022/04/24 00:49:31;;;;;;;7.63;6.35;;;14.60;46.60;;;;;;5086389;28;20620;-86
2022/04/24 00:51:57;;;;;;;8.50;6.70;;;14.60;46.70;;;;;;5082538;28;20204;-86
2022/04/24 00:54:24;;;;;;;12.10;6.50;;;14.50;46.80;;;;;;5112448;28;20180;-87
2022/04/24 00:56:49;;;;;;;7.18;6.47;;;14.50;46.80;;;;;;5090776;28;20231;-85
2022/04/24 00:59:16;;;;;;;7.50;6.50;;;14.50;47.10;;;;;;5091201;28;20521;-86
2022/04/24 01:01:42;;;;;;;10.98;5.93;;;14.50;47.00;;;;;;5076159;28;20419;-87
2022/04/24 01:04:10;;;;;;;10.57;7.10;;;14.40;47.10;;;;;;5096402;28;20470;-87
2022/04/24 01:06:41;;;;;;;8.95;5.93;;;14.30;47.30;;;;;;5083875;28;20222;-87
2022/04/24 01:09:15;;;;;;;7.80;6.53;;;14.30;47.30;;;;;;5094144;28;20184;-86
2022/04/24 01:11:42;;;;;;;7.90;6.13;;;14.30;47.40;;;;;;5058529;28;20172;-86
2022/04/24 01:14:09;;;;;;;10.30;6.68;;;14.30;47.70;;;;;;5074968;28;20279;-86
2022/04/24 01:16:35;;;;;;;9.77;5.80;;;14.20;47.70;;;;;;5088503;28;20210;-87
2022/04/24 01:19:02;;;;;;;8.02;7.18;;;14.20;47.80;;;;;;5116405;28;20700;-88
2022/04/24 01:21:31;;;;;;;7.47;6.72;;;14.20;47.90;;;;;;5115783;28;20660;-87
2022/04/24 01:23:57;;;;;;;6.22;5.63;;;14.20;47.90;;;;;;5111214;28;20663;-87
2022/04/24 01:26:22;;;;;;;14.47;6.30;;;14.10;48.20;;;;;;5094004;28;20199;-88
2022/04/24 01:28:48;;;;;;;7.70;6.10;;;14.10;48.50;;;;;;5092881;28;20661;-87
2022/04/24 01:31:14;;;;;;;6.78;6.18;;;14.00;48.40;;;;;;5074059;28;20184;-86
2022/04/24 01:33:40;;;;;;;6.80;5.63;;;14.00;48.50;;;;;;5039208;28;20189;-87
2022/04/24 01:36:06;;;;;;;6.60;5.70;;;14.00;48.60;;;;;;5072474;28;20196;-86
2022/04/24 01:38:33;;;;;;;6.28;5.68;;;14.00;48.80;;;;;;5074697;28;20260;-86
2022/04/24 01:40:59;;;;;;;6.72;5.57;;;14.00;49.00;;;;;;5075648;28;20267;-86
2022/04/24 01:43:25;;;;;;;9.50;6.40;;;13.90;49.00;;;;;;5076748;28;20222;-86
2022/04/24 01:45:50;;;;;;;6.10;5.50;;;13.80;49.10;;;;;;5076260;28;20549;-87
2022/04/24 01:48:16;;;;;;;8.73;6.60;;;13.90;49.20;;;;;;5096878;28;20167;-85
2022/04/24 01:50:42;;;;;;;7.17;5.33;;;13.80;49.10;;;;;;5104499;28;20624;-87
2022/04/24 01:53:07;;;;;;;7.13;6.30;;;13.90;49.10;;;;;;5099876;27;20179;-85
2022/04/24 01:55:33;;;;;;;6.30;5.50;;;13.80;49.20;;;;;;5104023;28;20213;-85
2022/04/24 01:57:59;;;;;;;7.13;6.43;;;13.80;49.40;;;;;;5105622;28;20242;-85
2022/04/24 02:00:24;;;;;;;6.50;5.80;;;13.70;49.60;;;;;;5110605;28;20277;-85
2022/04/24 02:02:51;;;;;;;7.07;6.40;;;13.60;49.70;;;;;;5109037;28;20429;-85
2022/04/24 02:05:17;;;;;;;6.68;6.00;;;13.70;49.90;;;;;;5091114;28;20195;-85
2022/04/24 02:07:44;;;;;;;6.07;5.57;;;13.70;49.70;;;;;;5099017;28;20215;-84
2022/04/24 02:10:09;;;;;;;10.93;6.05;;;13.60;49.90;;;;;;5082369;28;20236;-84
2022/04/24 02:12:40;;;;;;;6.87;6.17;;;13.60;50.00;;;;;;5072444;28;20227;-84
2022/04/24 02:15:07;;;;;;;6.60;5.90;;;13.80;49.70;;;;;;5076272;28;20530;-84
2022/04/24 02:17:34;;;;;;;7.38;6.63;;;13.60;49.50;;;;;;5092666;28;20196;-84
2022/04/24 02:20:00;;;;;;;12.43;6.43;;;13.60;49.90;;;;;;5093174;28;20179;-84
2022/04/24 02:22:34;;;;;;;9.90;5.90;;;13.50;50.00;;;;;;5094310;28;20206;-84
2022/04/24 02:25:00;;;;;;;6.63;5.97;;;13.70;50.00;;;;;;5088832;28;20265;-84
2022/04/24 02:27:26;;;;;;;7.20;6.38;;;13.50;50.00;;;;;;5094893;28;20207;-85
2022/04/24 02:29:52;;;;;;;7.55;6.32;;;13.60;50.00;;;;;;5094367;28;20176;-85
2022/04/24 02:32:21;;;;;;;6.90;6.30;;;13.60;49.90;;;;;;5101701;28;20171;-85
2022/04/24 02:34:47;;;;;;;7.65;6.50;;;13.50;50.20;;;;;;5102596;28;20398;-84
2022/04/24 02:37:13;;;;;;;12.13;6.60;;;13.50;50.30;;;;;;5098948;28;20202;-86
2022/04/24 02:39:38;;;;;;;7.30;6.60;;;13.40;50.30;;;;;;5105672;28;20655;-85
2022/04/24 02:42:05;;;;;;;6.90;6.13;;;13.40;50.50;;;;;;5102500;28;20452;-84
2022/04/24 02:44:30;;;;;;;6.90;6.20;;;13.40;50.60;;;;;;5097143;28;20215;-84
2022/04/24 02:46:56;;;;;;;6.87;6.27;;;13.40;50.60;;;;;;5103033;28;20207;-84
2022/04/24 02:49:22;;;;;;;7.40;6.80;;;13.50;50.50;;;;;;5103469;28;20256;-87
2022/04/24 02:51:47;;;;;;;9.40;6.20;;;13.30;50.60;;;;;;5115801;28;20168;-86
2022/04/24 02:54:13;;;;;;;7.50;6.80;;;13.30;51.10;;;;;;5098767;28;20470;-84
2022/04/24 02:56:39;;;;;;;9.23;7.00;;;13.20;51.10;;;;;;5091703;28;20559;-85
2022/04/24 02:59:05;;;;;;;7.90;5.90;;;13.20;51.20;;;;;;5093024;28;20180;-86
2022/04/24 03:01:31;;;;;;;8.07;6.93;;;13.10;51.50;;;;;;5092481;28;20538;-86
2022/04/24 03:03:57;;;;;;;7.47;6.10;;;13.10;51.60;;;;;;5075262;28;20184;-86
2022/04/24 03:06:23;;;;;;;7.72;6.72;;;13.10;51.60;;;;;;5094507;28;20814;-87
2022/04/24 03:08:48;;;;;;;9.50;6.37;;;13.10;51.70;;;;;;5094322;28;20176;-86
2022/04/24 03:11:15;;;;;;;15.43;6.80;;;13.10;51.80;;;;;;5073120;28;20173;-84
2022/04/24 03:13:41;;;;;;;12.82;7.53;;;12.90;51.90;;;;;;5072416;28;20173;-84
2022/04/24 03:16:06;;;;;;;7.13;6.43;;;12.90;52.20;;;;;;5072690;28;20204;-86
2022/04/24 03:18:32;;;;;;;9.07;7.43;;;13.00;52.30;;;;;;5070974;28;20180;-86
2022/04/24 03:20:58;;;;;;;8.20;7.27;;;13.00;52.00;;;;;;5071163;28;20194;-86
2022/04/24 03:23:24;;;;;;;7.80;6.63;;;13.00;52.20;;;;;;5088378;28;20755;-85
2022/04/24 03:25:50;;;;;;;6.87;6.17;;;13.00;52.20;;;;;;5092695;28;20577;-85
2022/04/24 03:28:17;;;;;;;8.50;7.70;;;12.90;52.50;;;;;;5091450;28;20958;-85
2022/04/24 03:30:43;;;;;;;7.82;6.55;;;12.90;52.40;;;;;;5074999;28;20187;-85
2022/04/24 03:33:10;;;;;;;7.80;6.53;;;12.90;52.70;;;;;;5096447;28;20183;-86
2022/04/24 03:35:37;;;;;;;8.00;7.20;;;12.80;52.80;;;;;;5115567;28;20191;-87
2022/04/24 03:38:03;;;;;;;8.48;7.28;;;12.80;52.80;;;;;;5087708;28;20204;-85
2022/04/24 03:40:29;;;;;;;8.93;7.23;;;12.80;52.90;;;;;;5088642;28;20202;-85
2022/04/24 03:42:55;;;;;;;8.27;7.38;;;12.70;53.10;;;;;;5091990;28;20982;-86
2022/04/24 03:45:21;;;;;;;7.73;7.03;;;12.80;53.00;;;;;;5075526;28;20211;-84
2022/04/24 03:47:51;;;;;;;9.53;7.07;;;12.70;53.30;;;;;;5074773;28;20437;-85
2022/04/24 03:50:19;;;;;;;8.85;7.43;;;12.60;53.50;;;;;;5093917;28;20410;-87
2022/04/24 03:52:44;;;;;;;10.55;8.05;;;12.60;53.70;;;;;;5097865;28;20207;-86
2022/04/24 03:55:10;;;;;;;8.23;7.43;;;12.50;53.80;;;;;;5113987;28;20251;-86
2022/04/24 03:57:36;;;;;;;8.33;7.53;;;12.50;53.90;;;;;;5113856;28;20219;-87
2022/04/24 04:00:02;;;;;;;7.97;7.23;;;12.50;54.00;;;;;;5114057;28;20179;-86
2022/04/24 04:02:28;;;;;;;9.00;7.15;;;12.50;54.10;;;;;;5114807;28;20186;-85
2022/04/24 04:04:54;;;;;;;8.73;7.77;;;12.60;53.70;;;;;;5113513;28;20207;-85
2022/04/24 04:07:20;;;;;;;9.53;7.60;;;12.60;53.80;;;;;;5100506;28;20225;-86
2022/04/24 04:09:46;;;;;;;8.68;7.28;;;12.60;53.70;;;;;;5092411;28;20164;-86
2022/04/24 04:12:12;;;;;;;7.83;7.03;;;12.40;53.80;;;;;;5113795;28;20701;-86
2022/04/24 04:14:37;;;;;;;7.60;6.90;;;12.50;53.90;;;;;;5113990;28;20253;-86
2022/04/24 04:17:03;;;;;;;10.27;7.70;;;12.50;53.80;;;;;;5114631;28;20665;-85
2022/04/24 04:19:29;;;;;;;9.20;8.30;;;12.40;53.90;;;;;;5104045;28;20410;-86
2022/04/24 04:21:55;;;;;;;8.47;7.60;;;12.40;54.10;;;;;;5085101;28;20423;-87
2022/04/24 04:24:23;;;;;;;8.60;7.70;;;12.40;54.20;;;;;;5062751;28;20204;-86
2022/04/24 04:26:48;;;;;;;7.95;7.15;;;12.40;54.20;;;;;;5061104;28;20431;-86
2022/04/24 04:29:14;;;;;;;9.77;8.60;;;12.50;54.30;;;;;;5083699;28;20180;-85
2022/04/24 04:31:40;;;;;;;8.87;7.93;;;12.40;54.30;;;;;;5096021;28;20184;-84
2022/04/24 04:34:06;;;;;;;9.20;8.30;;;12.30;54.50;;;;;;5092222;28;20180;-86
2022/04/24 04:36:31;;;;;;;9.40;8.00;;;12.30;55.10;;;;;;5100073;28;20663;-85
2022/04/24 04:38:57;;;;;;;9.27;8.37;;;12.30;55.00;;;;;;5104524;28;20422;-83
2022/04/24 04:41:23;;;;;;;8.33;7.53;;;12.30;55.10;;;;;;5109257;28;20251;-85
2022/04/24 04:43:49;;;;;;;9.10;7.80;;;12.20;55.10;;;;;;5107904;28;20186;-85
2022/04/24 04:46:14;;;;;;;10.60;9.30;;;12.30;55.20;;;;;;5108850;28;20825;-85
2022/04/24 04:48:40;;;;;;;8.97;7.63;;;12.30;55.20;;;;;;5092846;28;20246;-85
2022/04/24 04:51:06;;;;;;;8.85;7.93;;;12.40;55.00;;;;;;5088779;28;20196;-86
2022/04/24 04:53:32;;;;;;;10.37;7.97;;;12.40;54.90;;;;;;5125539;28;20200;-84
2022/04/24 04:55:58;;;;;;;8.98;8.10;;;12.40;55.00;;;;;;5124172;27;20175;-85
2022/04/24 04:58:24;;;;;;;9.90;8.50;;;12.40;54.90;;;;;;5116042;28;20164;-86
2022/04/24 05:00:50;;;;;;;10.20;8.40;;;12.30;55.20;;;;;;5097583;28;20171;-86
2022/04/24 05:03:15;;;;;;;11.10;8.40;;;12.20;55.20;;;;;;5113614;28;20579;-85
2022/04/24 05:05:42;;;;;;;10.13;9.13;;;12.30;55.50;;;;;;5079294;28;20454;-84
2022/04/24 05:08:08;;;;;;;11.07;8.80;;;12.10;55.50;;;;;;5056711;28;20276;-85
2022/04/24 05:10:33;;;;;;;10.47;8.97;;;12.00;55.90;;;;;;5087079;28;20248;-86
2022/04/24 05:12:59;;;;;;;10.07;9.07;;;12.20;55.80;;;;;;5078121;28;20176;-85
2022/04/24 05:15:25;;;;;;;12.43;8.33;;;12.30;55.70;;;;;;5081444;28;20549;-84
2022/04/24 05:18:00;;;;;;;9.43;8.52;;;12.40;55.40;;;;;;5084296;28;20222;-84
2022/04/24 05:20:26;;;;;;;10.05;9.00;;;12.40;55.30;;;;;;5085112;28;20199;-84
2022/04/24 05:23:01;;;;;;;9.37;8.30;;;12.20;55.50;;;;;;5050649;28;20257;-86
2022/04/24 05:25:27;;;;;;;11.27;9.85;;;12.10;55.90;;;;;;5068374;28;20461;-85
2022/04/24 05:27:53;;;;;;;13.23;10.40;;;12.40;55.60;;;;;;5077793;28;20394;-86
2022/04/24 05:30:19;;;;;;;13.20;10.87;;;12.50;55.40;;;;;;5080482;28;20173;-86
2022/04/24 05:32:47;;;;;;;10.15;9.15;;;13.20;54.10;;;;;;5081347;28;20184;-87
2022/04/24 05:35:12;;;;;;;13.85;9.90;;;13.60;52.70;;;;;;5084957;28;20643;-86
2022/04/24 05:37:40;;;;;;;10.30;9.23;;;13.80;51.80;;;;;;5078189;28;20223;-87
2022/04/24 05:40:06;;;;;;;11.82;10.35;;;14.50;50.80;;;;;;5070257;28;20192;-85
2022/04/24 05:42:43;;;;;;;10.70;9.68;;;14.80;49.10;;;;;;5078779;28;20184;-86
2022/04/24 05:45:10;;;;;;;13.68;9.30;;;14.30;49.50;;;;;;5083707;28;20206;-85
2022/04/24 05:47:36;;;;;;;10.30;9.25;;;14.60;48.90;;;;;;5061576;28;20223;-86
2022/04/24 05:50:02;;;;;;;10.47;9.17;;;15.20;48.20;;;;;;5081113;28;20648;-86
2022/04/24 05:52:28;;;;;;;10.70;9.60;;;15.10;47.70;;;;;;5076587;28;20253;-86
2022/04/24 05:54:53;;;;;;;11.10;10.10;;;15.10;48.20;;;;;;5081587;28;20423;-86
2022/04/24 05:57:19;;;;;;;10.67;9.30;;;15.50;47.30;;;;;;5084124;28;20461;-85
2022/04/24 05:59:45;;;;;;;10.77;9.77;;;15.60;46.70;;;;;;5085086;28;20177;-85
2022/04/24 06:02:11;;;;;;;11.90;9.57;;;16.10;45.60;;;;;;5067020;28;20238;-86
2022/04/24 06:04:37;;;;;;;11.18;10.23;;;15.50;46.10;;;;;;5078686;28;20195;-86
2022/04/24 06:07:03;;;;;;;11.10;9.27;;;15.80;45.90;;;;;;5091662;28;20210;-87
2022/04/24 06:09:29;;;;;;;11.47;9.30;;;16.30;45.10;;;;;;5078055;28;20173;-87
2022/04/24 06:11:58;;;;;;;11.40;9.80;;;16.40;44.50;;;;;;5090180;28;20570;-86
2022/04/24 06:14:24;;;;;;;9.75;8.80;;;16.70;43.70;;;;;;5090395;28;20260;-86
2022/04/24 06:16:54;;;;;;;11.13;9.30;;;16.80;43.50;;;;;;5084811;28;20334;-84
2022/04/24 06:19:19;;;;;;;10.52;9.43;;;16.70;43.70;;;;;;5088063;28;20280;-87
2022/04/24 06:21:45;;;;;;;10.03;9.10;;;16.70;43.60;;;;;;5089521;28;20195;-86
2022/04/24 06:24:11;;;;;;;10.50;9.50;;;17.30;42.70;;;;;;5083690;28;20658;-86
2022/04/24 06:26:37;;;;;;;14.50;11.03;;;17.50;41.80;;;;;;5106076;28;20200;-86
2022/04/24 06:29:02;;;;;;;9.63;8.70;;;17.60;41.20;;;;;;5091543;28;20563;-85
2022/04/24 06:31:28;;;;;;;13.03;9.33;;;17.90;41.10;;;;;;5094951;28;20333;-86
2022/04/24 06:33:54;;;;;;;10.17;9.07;;;18.20;40.00;;;;;;5099746;28;20445;-86
2022/04/24 06:36:20;;;;;;;9.20;8.17;;;17.90;40.50;;;;;;5070150;28;20244;-87
2022/04/24 06:38:45;;;;;;;10.27;9.37;;;18.00;40.00;;;;;;5099307;28;20182;-87
2022/04/24 06:41:11;;;;;;;9.87;8.97;;;18.40;39.80;;;;;;5088271;28;20195;-87
2022/04/24 06:43:37;;;;;;;10.50;9.33;;;17.20;40.10;;;;;;5086466;28;20238;-87
2022/04/24 06:46:03;;;;;;;10.77;9.77;;;16.90;42.40;;;;;;5084557;28;20219;-86
2022/04/24 06:48:29;;;;;;;10.37;9.37;;;17.10;42.30;;;;;;5086374;28;20245;-86
2022/04/24 06:50:55;;;;;;;10.03;9.00;;;17.40;41.40;;;;;;5084761;28;20448;-86
2022/04/24 06:53:21;;;;;;;9.60;8.70;;;17.70;41.50;;;;;;5090040;28;20187;-86
2022/04/24 06:55:50;;;;;;;11.18;9.68;;;18.70;39.70;;;;;;5089947;28;20181;-86
2022/04/24 06:58:18;;;;;;;11.35;9.40;;;18.40;39.20;;;;;;5083181;28;20184;-86
2022/04/24 07:00:45;;;;;;;11.20;8.90;;;18.30;39.20;;;;;;5074169;28;20180;-87
2022/04/24 07:03:13;;;;;;;10.68;8.88;;;16.90;41.50;;;;;;5091044;28;20206;-86
2022/04/24 07:05:40;;;;;;;12.25;8.93;;;16.50;43.30;;;;;;5080751;28;20203;-86
2022/04/24 07:08:06;;;;;;;10.10;9.10;;;16.60;43.60;;;;;;5089209;28;20210;-86
2022/04/24 07:10:33;;;;;;;12.73;10.45;;;16.50;44.00;;;;;;5103300;22;20250;-85
2022/04/24 07:13:06;;;;;;;11.20;10.20;;;16.00;44.70;;;;;;5078539;28;20183;-85
2022/04/24 07:15:39;;;;;;;9.63;8.73;;;15.60;46.20;;;;;;5061615;28;20196;-85
2022/04/24 07:18:07;;;;;;;12.15;10.65;;;15.50;47.20;;;;;;5063486;28;20183;-85
2022/04/24 07:20:33;;;;;;;12.05;10.65;;;15.40;47.50;;;;;;5090116;28;20217;-85
2022/04/24 07:23:01;;;;;;;11.70;10.38;;;15.20;48.20;;;;;;5073544;28;20183;-85
2022/04/24 07:25:33;;;;;;;13.93;10.93;;;14.20;49.80;;;;;;5077079;28;20204;-85
2022/04/24 07:27:59;;;;;;;14.07;11.60;;;13.90;51.10;;;;;;5076762;28;20183;-84
2022/04/24 07:30:25;;;;;;;11.97;10.63;;;13.80;52.20;;;;;;5076974;28;20191;-85
2022/04/24 07:32:56;;;;;;;12.32;10.02;;;14.00;52.00;;;;;;5076813;28;20502;-85
2022/04/24 07:35:27;;;;;;;11.00;9.88;;;14.00;52.20;;;;;;5088186;28;20190;-84
2022/04/24 07:37:53;;;;;;;11.27;10.18;;;13.70;52.30;;;;;;5095477;28;20186;-85
2022/04/24 07:40:21;;;;;;;11.73;9.45;;;13.70;52.60;;;;;;5087466;28;20748;-85
2022/04/24 07:42:47;;;;;;;11.05;9.93;;;13.80;52.80;;;;;;5086567;28;20254;-86
2022/04/24 07:45:22;;;;;;;10.37;9.30;;;13.90;52.50;;;;;;5076757;28;20242;-85
2022/04/24 07:47:58;;;;;;;12.60;10.70;;;13.80;52.50;;;;;;5077180;28;20206;-85
2022/04/24 07:50:26;;;;;;;11.77;10.13;;;13.80;52.60;;;;;;5076512;28;20274;-85
2022/04/24 07:52:52;;;;;;;9.68;8.65;;;13.90;52.30;;;;;;5071080;28;20176;-85
2022/04/24 07:55:22;;;;;;;10.35;9.18;;;13.90;52.10;;;;;;5071404;28;20172;-85
2022/04/24 07:57:49;;;;;;;11.55;10.15;;;14.00;52.10;;;;;;5076456;28;20241;-85
2022/04/24 08:00:17;;;;;;;12.80;11.57;;;14.10;51.70;;;;;;5083357;28;20200;-84
2022/04/24 08:02:54;;;;;;;11.90;9.73;;;14.00;51.70;;;;;;5077292;28;20184;-85
2022/04/24 08:05:27;;;;;;;11.13;9.25;;;14.20;51.70;;;;;;5077893;28;20196;-86
2022/04/24 08:07:53;;;;;;;16.40;9.85;;;14.40;51.10;;;;;;5110774;28;20168;-86
2022/04/24 08:10:24;;;;;;;14.02;10.35;;;14.50;50.80;;;;;;5091867;28;20207;-85
2022/04/24 08:12:51;;;;;;;12.38;10.43;;;14.40;50.80;;;;;;5079436;28;20266;-86
2022/04/24 08:15:17;;;;;;;10.35;9.35;;;14.60;51.50;;;;;;5075979;28;20180;-85
2022/04/24 08:17:43;;;;;;;14.40;9.48;;;14.50;50.70;;;;;;5081326;28;20180;-86
2022/04/24 08:20:17;;;;;;;10.13;9.13;;;14.60;50.30;;;;;;5111204;28;20200;-87
2022/04/24 08:22:44;;;;;;;11.75;10.45;;;14.60;50.20;;;;;;5105590;28;20631;-85
2022/04/24 08:25:13;;;;;;;10.48;9.48;;;14.60;50.00;;;;;;5080369;28;20200;-85
2022/04/24 08:27:39;;;;;;;11.55;10.35;;;14.70;49.90;;;;;;5079857;28;20203;-87
2022/04/24 08:30:06;;;;;;;9.80;8.80;;;14.70;50.10;;;;;;5091917;28;20702;-87
2022/04/24 08:32:33;;;;;;;11.73;9.85;;;14.90;50.10;;;;;;5073376;28;20663;-85
2022/04/24 08:34:59;;;;;;;9.45;8.55;;;14.80;50.30;;;;;;5079428;28;20566;-85
2022/04/24 08:37:28;;;;;;;12.05;9.70;;;14.80;50.10;;;;;;5079186;28;20284;-86
2022/04/24 08:39:54;;;;;;;12.98;9.65;;;14.70;49.60;;;;;;5078876;28;20565;-86
2022/04/24 08:42:23;;;;;;;12.23;9.57;;;15.00;48.90;;;;;;5096895;28;20179;-86
2022/04/24 08:44:51;;;;;;;11.05;9.90;;;15.10;48.30;;;;;;5079024;28;20542;-85
2022/04/24 08:47:20;;;;;;;10.75;9.65;;;15.10;48.20;;;;;;5099345;28;20172;-86
2022/04/24 08:50:00;;;;;;;11.43;9.38;;;14.90;48.30;;;;;;5092595;28;20200;-86
2022/04/24 08:52:28;;;;;;;11.60;9.95;;;15.20;48.30;;;;;;5088977;28;20179;-86
2022/04/24 08:54:55;;;;;;;9.75;8.82;;;15.20;48.00;;;;;;5078975;28;20180;-87
2022/04/24 08:57:26;;;;;;;18.38;10.90;;;15.30;47.70;;;;;;5097566;28;20190;-85
2022/04/24 08:59:54;;;;;;;11.38;10.05;;;15.60;47.00;;;;;;5076272;28;20687;-86
2022/04/24 09:02:20;;;;;;;11.75;9.98;;;15.70;46.30;;;;;;5079778;28;20172;-85
2022/04/24 09:04:46;;;;;;;12.68;9.70;;;15.70;46.30;;;;;;5072760;28;20205;-86
2022/04/24 09:07:17;;;;;;;12.83;9.97;;;15.80;45.70;;;;;;5077499;28;20177;-86
2022/04/24 09:09:50;;;;;;;11.93;10.63;;;15.90;45.40;;;;;;5066651;28;20454;-85
2022/04/24 09:12:18;;;;;;;12.10;10.13;;;15.80;45.70;;;;;;5079677;28;20180;-85
2022/04/24 09:14:49;;;;;;;10.82;9.75;;;16.00;45.60;;;;;;5073439;28;20751;-85
2022/04/24 09:17:24;;;;;;;12.40;10.60;;;16.00;45.00;;;;;;5094225;28;20202;-86
2022/04/24 09:20:19;;;;;;;10.73;9.63;;;16.00;45.10;;;;;;5062846;28;20345;-86
2022/04/24 09:22:46;;;;;;;10.10;9.15;;;16.00;45.10;;;;;;5075657;28;20183;-86
2022/04/24 09:25:12;;;;;;;10.15;9.20;;;16.00;45.20;;;;;;5079001;28;20199;-85
2022/04/24 09:27:41;;;;;;;11.13;10.00;;;16.10;45.30;;;;;;5081080;28;20176;-85
2022/04/24 09:30:15;;;;;;;11.60;10.38;;;16.30;44.70;;;;;;5102905;28;20196;-86
2022/04/24 09:32:51;;;;;;;10.45;9.45;;;16.40;44.20;;;;;;5094189;28;20180;-85
2022/04/24 09:35:28;;;;;;;12.77;10.27;;;16.30;44.00;;;;;;5079702;28;20286;-86
2022/04/24 09:38:13;;;;;;;10.90;9.82;;;16.50;43.60;;;;;;5079605;28;20249;-86
2022/04/24 09:40:43;;;;;;;12.27;10.30;;;16.60;43.30;;;;;;5098388;28;20201;-87
2022/04/24 09:43:14;;;;;;;10.65;9.40;;;16.50;43.40;;;;;;5081942;28;20195;-86
2022/04/24 09:45:41;;;;;;;11.20;10.10;;;16.80;43.70;;;;;;5080806;28;20221;-85
2022/04/24 09:48:20;;;;;;;11.77;9.60;;;16.90;42.50;;;;;;5090334;28;20650;-86
2022/04/24 09:50:48;;;;;;;11.13;9.80;;;16.90;42.20;;;;;;5087406;28;20199;-86
2022/04/24 09:53:19;;;;;;;15.23;10.63;;;16.60;42.30;;;;;;5097127;28;20233;-86
2022/04/24 09:55:58;;;;;;;12.55;10.70;;;16.80;42.40;;;;;;5077870;28;20258;-86
2022/04/24 09:58:24;;;;;;;13.70;9.20;;;16.80;41.90;;;;;;5096200;28;20175;-86
2022/04/24 10:00:51;;;;;;;10.48;9.38;;;16.70;42.00;;;;;;5078349;28;20227;-86
2022/04/24 10:03:19;;;;;;;10.40;9.30;;;16.70;42.20;;;;;;5096486;28;20842;-87
2022/04/24 10:05:47;;;;;;;11.15;9.90;;;16.70;42.20;;;;;;5069656;28;20249;-86
2022/04/24 10:08:13;;;;;;;11.95;10.60;;;16.90;42.20;;;;;;5075788;28;20179;-86
2022/04/24 10:10:40;;;;;;;11.27;10.15;;;16.90;42.00;;;;;;5072075;28;20199;-85
2022/04/24 10:13:09;;;;;;;11.38;10.23;;;17.00;41.40;;;;;;5077826;28;20183;-86
2022/04/24 10:15:42;;;;;;;12.60;9.23;;;17.10;41.20;;;;;;5068870;28;20662;-87
2022/04/24 10:18:39;;;;;;;10.00;9.00;;;17.10;41.00;;;;;;5096154;28;20168;-86
2022/04/24 10:21:11;;;;;;;11.02;9.55;;;16.90;40.70;;;;;;5070658;28;20210;-87
2022/04/24 10:23:38;;;;;;;9.25;8.45;;;16.90;40.80;;;;;;5079175;28;20180;-86
2022/04/24 10:26:18;;;;;;;10.10;9.02;;;17.10;40.40;;;;;;5080846;28;20337;-86
2022/04/24 10:28:47;;;;;;;16.15;10.82;;;17.10;40.10;;;;;;5077416;28;20179;-86
2022/04/24 10:31:15;;;;;;;15.93;10.30;;;17.30;39.90;;;;;;5085786;28;20274;-85
2022/04/24 10:33:51;;;;;;;11.02;9.93;;;17.20;39.90;;;;;;5041358;28;20194;-85
2022/04/24 10:36:18;;;;;;;11.73;9.52;;;17.20;39.70;;;;;;5090060;28;20176;-86
2022/04/24 10:38:49;;;;;;;9.35;8.45;;;17.30;39.30;;;;;;5076787;28;20195;-86
2022/04/24 10:41:29;;;;;;;12.63;9.60;;;17.30;39.20;;;;;;5076592;28;20263;-86
2022/04/24 10:44:08;;;;;;;12.82;9.77;;;17.30;38.80;;;;;;5088077;28;20406;-86
2022/04/24 10:46:38;;;;;;;10.57;9.57;;;17.40;38.90;;;;;;5087794;28;20182;-87
2022/04/24 10:49:18;;;;;;;12.77;9.13;;;17.40;38.80;;;;;;5076694;28;20184;-86
2022/04/24 10:51:57;;;;;;;9.27;8.38;;;17.60;38.40;;;;;;5081795;28;20160;-87
2022/04/24 10:54:34;;;;;;;9.13;8.23;;;17.80;38.10;;;;;;5072129;28;20746;-87
2022/04/24 10:57:01;;;;;;;16.17;9.68;;;17.90;37.80;;;;;;5087938;28;20197;-88
2022/04/24 10:59:41;;;;;;;11.30;9.80;;;18.00;37.90;;;;;;5076520;28;20226;-88
2022/04/24 11:02:09;;;;;;;16.27;9.18;;;18.00;38.20;;;;;;5078398;28;20171;-87
2022/04/24 11:04:40;;;;;;;10.13;9.13;;;17.90;38.60;;;;;;5092689;28;20233;-88
2022/04/24 11:07:06;;;;;;;11.43;9.98;;;17.90;38.60;;;;;;5079120;28;20644;-87
2022/04/24 11:09:33;;;;;;;14.10;9.07;;;18.00;38.30;;;;;;5072713;28;20208;-86
2022/04/24 11:12:10;;;;;;;10.85;8.18;;;18.10;38.40;;;;;;5058364;28;20419;-88
2022/04/24 11:14:37;;;;;;;13.20;9.25;;;18.30;38.40;;;;;;5075302;28;20184;-87
2022/04/24 11:17:05;;;;;;;9.85;8.85;;;18.30;37.80;;;;;;5092307;28;20545;-87
2022/04/24 11:19:32;;;;;;;10.32;8.40;;;18.30;37.60;;;;;;5076936;28;20215;-88
2022/04/24 11:22:00;;;;;;;11.68;9.70;;;18.40;37.20;;;;;;5088441;28;20171;-86
2022/04/24 11:24:29;;;;;;;11.98;9.48;;;18.60;37.20;;;;;;5075208;28;20562;-88
2022/04/24 11:26:56;;;;;;;24.50;10.45;;;18.60;36.60;;;;;;5076306;28;20183;-88
2022/04/24 11:29:23;;;;;;;10.57;8.73;;;18.50;36.10;;;;;;5078339;28;20249;-87
2022/04/24 11:31:52;;;;;;;9.85;8.57;;;18.50;36.20;;;;;;5066460;28;20220;-86
2022/04/24 11:34:23;;;;;;;11.85;9.10;;;18.60;36.50;;;;;;5065530;28;20164;-87
2022/04/24 11:36:54;;;;;;;11.50;8.90;;;18.60;36.80;;;;;;5096501;28;20179;-86
2022/04/24 11:39:31;;;;;;;10.45;9.38;;;18.60;37.40;;;;;;5072036;28;20754;-86
2022/04/24 11:42:00;;;;;;;11.55;9.65;;;18.70;37.50;;;;;;5077327;28;20164;-85
2022/04/24 11:50:14;;;;;;;9.90;7.53;;;18.50;36.70;;;;;;5094284;28;20249;-88
2022/04/24 11:52:50;;;;;;;9.02;8.20;;;18.50;36.90;;;;;;5086652;28;20187;-88
2022/04/24 11:55:23;;;;;;;9.90;8.77;;;18.30;37.20;;;;;;5081274;28;20233;-87
2022/04/24 11:58:02;;;;;;;10.40;9.35;;;18.60;36.00;;;;;;5094881;28;20271;-88
2022/04/24 12:00:38;;;;;;;11.20;10.10;;;18.70;35.80;;;;;;5069162;28;20223;-86
2022/04/24 12:03:07;;;;;;;28.33;9.52;;;18.90;35.60;;;;;;5094728;28;20182;-87
2022/04/24 12:05:33;;;;;;;10.85;7.75;;;18.90;35.60;;;;;;5095001;28;20203;-87
2022/04/24 12:08:00;;;;;;;7.80;7.10;;;19.00;34.70;;;;;;5076499;28;20163;-87
2022/04/24 12:10:26;;;;;;;8.32;7.47;;;19.10;34.20;;;;;;5058219;28;20318;-89
2022/04/24 12:12:54;;;;;;;11.90;8.20;;;18.90;35.50;;;;;;5075093;28;20259;-88
2022/04/24 12:15:25;;;;;;;10.40;8.40;;;18.90;35.70;;;;;;5077875;28;20647;-88
2022/04/24 12:17:56;;;;;;;10.27;7.25;;;18.90;36.30;;;;;;5088646;28;20165;-87
2022/04/24 12:20:45;;;;;;;11.90;8.98;;;19.10;37.20;;;;;;5071174;28;20606;-86
2022/04/24 12:23:15;;;;;;;9.50;8.35;;;19.20;34.50;;;;;;5056413;28;20177;-88
2022/04/24 12:25:57;;;;;;;11.20;8.07;;;19.10;34.30;;;;;;5058179;28;20189;-88
2022/04/24 12:28:33;;;;;;;10.60;8.38;;;19.10;34.80;;;;;;5077104;28;20266;-88
2022/04/24 12:31:01;;;;;;;8.85;7.95;;;19.10;35.90;;;;;;5070122;28;20246;-88
2022/04/24 12:33:28;;;;;;;8.13;7.32;;;19.20;34.50;;;;;;5088606;28;20180;-88
2022/04/24 12:35:55;;;;;;;10.27;7.68;;;19.30;34.00;;;;;;5074703;28;20570;-87
2022/04/24 12:38:22;;;;;;;8.38;7.05;;;19.30;34.30;;;;;;5076562;28;20188;-87
2022/04/24 12:41:02;;;;;;;13.88;8.20;;;19.30;34.50;;;;;;5080203;28;20727;-87
2022/04/24 12:43:30;;;;;;;7.60;6.78;;;19.50;34.50;;;;;;5080552;28;20183;-87
2022/04/24 12:46:01;;;;;;;7.40;6.80;;;19.50;34.70;;;;;;5079180;28;20196;-87
2022/04/24 12:48:28;;;;;;;7.82;7.03;;;19.10;36.40;;;;;;5093266;28;20183;-87
2022/04/24 12:50:55;;;;;;;7.78;6.80;;;19.20;34.60;;;;;;5078267;28;20200;-87